createdAt,value
2023-03-19T00:58:22.256Z,17.30
2023-03-19T01:00:54.645Z,15.00
2023-03-19T01:03:23.618Z,17.10
2023-03-19T01:05:52.098Z,17.80
2023-03-19T01:08:20.726Z,18.30
2023-03-19T01:10:49.053Z,17.10
2023-03-19T01:13:17.742Z,17.30
2023-03-19T01:15:46.938Z,17.40
2023-03-19T01:18:15.737Z,17.10
2023-03-19T01:20:47.187Z,17.10
2023-03-19T01:23:16.091Z,16.30
2023-03-19T01:25:44.860Z,14.90
2023-03-19T01:28:13.369Z,15.60
2023-03-19T01:30:43.153Z,16.10
2023-03-19T01:33:34.385Z,19.50
2023-03-19T01:36:09.241Z,16.20
2023-03-19T01:38:56.614Z,17.60
2023-03-19T01:41:26.014Z,18.00
2023-03-19T01:43:57.074Z,16.40
2023-03-19T01:46:38.090Z,17.30
2023-03-19T01:49:35.502Z,17.90
2023-03-19T01:52:14.758Z,21.60
2023-03-19T01:55:17.618Z,19.90
2023-03-19T01:57:51.758Z,20.30
2023-03-19T02:00:39.352Z,17.00
2023-03-19T02:03:08.494Z,19.00
2023-03-19T02:06:02.618Z,17.30
2023-03-19T02:08:31.355Z,18.10
2023-03-19T02:11:00.528Z,17.70
2023-03-19T02:13:29.137Z,18.10
2023-03-19T02:15:57.518Z,17.30
2023-03-19T02:18:27.895Z,17.70
2023-03-19T02:21:03.311Z,17.30
2023-03-19T02:23:44.113Z,16.30
2023-03-19T02:26:16.756Z,17.80
2023-03-19T02:28:47.107Z,17.40
2023-03-19T02:31:18.656Z,19.00
2023-03-19T02:34:06.308Z,17.90
2023-03-19T02:36:47.401Z,17.00
2023-03-19T02:39:41.767Z,16.50
2023-03-19T02:42:11.982Z,17.00
2023-03-19T02:44:40.502Z,18.10
2023-03-19T02:47:09.865Z,15.80
2023-03-19T02:49:38.756Z,17.40
2023-03-19T02:52:07.775Z,18.20
2023-03-19T02:54:35.988Z,17.20
2023-03-19T02:57:04.643Z,17.80
2023-03-19T02:59:39.229Z,15.30
2023-03-19T03:02:08.763Z,18.30
2023-03-19T03:04:37.551Z,18.90
2023-03-19T03:07:06.318Z,20.30
2023-03-19T03:09:35.911Z,17.80
2023-03-19T03:12:05.038Z,16.30
2023-03-19T03:14:33.855Z,17.30
2023-03-19T03:17:02.413Z,16.90
2023-03-19T03:19:34.659Z,18.00
2023-03-19T03:22:05.905Z,18.60
2023-03-19T03:24:34.538Z,19.20
2023-03-19T03:27:06.800Z,18.20
2023-03-19T03:29:36.976Z,20.20
2023-03-19T03:32:07.304Z,18.50
2023-03-19T03:34:36.599Z,17.80
2023-03-19T03:37:04.833Z,19.80
2023-03-19T03:39:33.276Z,17.90
2023-03-19T03:42:01.754Z,18.00
2023-03-19T03:44:31.678Z,17.10
2023-03-19T03:47:05.050Z,18.00
2023-03-19T03:49:33.728Z,15.90
2023-03-19T03:52:02.375Z,17.90
2023-03-19T03:57:03.480Z,18.90
2023-03-19T03:59:38.124Z,17.80
2023-03-19T04:02:06.972Z,16.60
2023-03-19T04:04:36.387Z,19.00
2023-03-19T04:07:05.020Z,17.30
2023-03-19T04:09:46.809Z,18.20
2023-03-19T04:12:15.140Z,19.00
2023-03-19T04:14:49.821Z,16.80
2023-03-19T04:17:18.582Z,17.50
2023-03-19T04:19:47.880Z,17.50
2023-03-19T04:22:19.008Z,19.40
2023-03-19T04:24:48.704Z,20.80
2023-03-19T04:27:17.192Z,19.30
2023-03-19T04:29:45.998Z,20.60
2023-03-19T04:32:15.534Z,18.20
2023-03-19T04:34:47.158Z,16.60
2023-03-19T04:37:16.123Z,16.00
2023-03-19T04:39:48.186Z,18.10
2023-03-19T04:42:17.489Z,18.80
2023-03-19T04:44:51.600Z,19.60
2023-03-19T04:47:24.217Z,21.40
2023-03-19T04:50:01.465Z,19.20
2023-03-19T04:52:31.996Z,18.00
2023-03-19T04:55:00.678Z,20.10
2023-03-19T04:57:30.176Z,17.90
2023-03-19T04:59:59.316Z,20.10
2023-03-19T05:02:28.277Z,21.50
2023-03-19T05:04:56.427Z,19.50
2023-03-19T05:07:25.038Z,22.20
2023-03-19T05:09:54.631Z,21.10
2023-03-19T05:12:27.109Z,22.20
2023-03-19T05:14:58.076Z,22.50
2023-03-19T05:17:37.432Z,24.40
2023-03-19T05:20:25.739Z,20.30
2023-03-19T05:22:58.594Z,20.20
2023-03-19T05:25:36.154Z,21.00
2023-03-19T05:28:05.499Z,21.60
2023-03-19T05:30:34.924Z,21.30
2023-03-19T05:33:23.151Z,21.10
2023-03-19T05:35:53.200Z,23.70
2023-03-19T05:38:29.310Z,19.40
2023-03-19T05:41:05.353Z,20.10
2023-03-19T05:43:41.856Z,21.70
2023-03-19T05:46:14.213Z,23.50
2023-03-19T05:48:42.423Z,24.80
2023-03-19T05:51:16.247Z,19.30
2023-03-19T05:53:47.041Z,19.70
2023-03-19T06:14:41.631Z,26.10
2023-03-19T07:43:37.527Z,28.80
2023-03-19T10:20:36.644Z,27.60
2023-03-19T13:05:23.320Z,23.00
2023-03-19T13:07:58.734Z,29.40
2023-03-19T13:10:27.184Z,22.10
2023-03-19T13:12:57.313Z,22.00
2023-03-19T13:15:27.938Z,23.70
2023-03-19T13:18:24.997Z,25.40
2023-03-19T13:21:02.686Z,23.80
2023-03-19T13:23:34.236Z,23.80
2023-03-19T13:26:10.008Z,23.40
2023-03-19T13:28:53.373Z,23.50
2023-03-19T13:31:24.308Z,21.30
2023-03-19T13:34:20.290Z,21.30
2023-03-19T13:37:12.580Z,20.50
2023-03-19T13:39:42.362Z,19.20
2023-03-19T13:42:20.248Z,25.40
2023-03-19T13:44:55.303Z,23.60
2023-03-19T13:47:26.804Z,21.00
2023-03-19T13:50:18.283Z,28.70
2023-03-19T13:52:50.580Z,21.50
2023-03-19T13:55:24.694Z,20.40
2023-03-19T13:58:12.493Z,19.90
2023-03-19T14:00:45.261Z,25.00
2023-03-19T14:03:23.998Z,22.70
2023-03-19T14:05:56.597Z,26.00
2023-03-19T14:08:30.141Z,19.80
2023-03-19T14:10:59.988Z,22.20
2023-03-19T14:13:34.102Z,22.70
2023-03-19T14:16:17.010Z,24.40
2023-03-19T14:18:45.866Z,27.40
2023-03-19T14:21:22.783Z,28.00
2023-03-19T14:23:55.024Z,37.90
2023-03-19T14:26:24.521Z,25.80
2023-03-19T14:29:05.383Z,27.20
2023-03-19T14:31:58.395Z,22.90
2023-03-19T14:34:35.019Z,24.70
2023-03-19T14:37:25.254Z,22.90
2023-03-19T14:40:04.737Z,31.40
2023-03-19T14:42:50.481Z,27.30
2023-03-19T14:45:47.105Z,25.90
2023-03-19T14:48:36.146Z,27.90
2023-03-19T14:51:13.436Z,31.40
2023-03-19T14:53:46.617Z,29.20
2023-03-19T14:56:23.392Z,33.60
2023-03-19T14:58:54.093Z,41.50
2023-03-19T15:01:30.017Z,44.90
2023-03-19T15:04:04.117Z,44.70
2023-03-19T15:06:35.593Z,51.90
2023-03-19T15:09:27.290Z,50.30
2023-03-19T15:12:16.632Z,44.00
2023-03-19T15:14:54.110Z,49.60
2023-03-19T15:17:24.868Z,39.80
2023-03-19T15:19:53.647Z,42.20
2023-03-19T15:22:31.434Z,50.70
2023-03-19T15:25:11.399Z,42.60
2023-03-19T15:27:40.103Z,41.10
2023-03-19T15:30:29.407Z,47.00
2023-03-19T15:33:12.015Z,47.90
2023-03-19T15:35:46.516Z,45.20
2023-03-19T15:38:16.511Z,42.30
2023-03-19T15:40:44.874Z,43.10
2023-03-19T15:43:13.497Z,42.50
2023-03-19T15:45:46.663Z,47.50
2023-03-19T15:48:26.314Z,42.90
2023-03-19T15:50:58.120Z,48.00
2023-03-19T15:53:28.537Z,46.70
2023-03-19T15:55:58.101Z,46.30
2023-03-19T15:58:28.714Z,43.50
2023-03-19T16:04:02.136Z,46.10
2023-03-19T16:06:32.243Z,41.30
2023-03-19T16:09:25.098Z,46.30
2023-03-19T16:11:56.103Z,49.30
2023-03-19T16:14:39.874Z,50.40
2023-03-19T16:17:14.344Z,46.60
2023-03-19T16:19:58.756Z,46.60
2023-03-19T16:22:32.621Z,43.00
2023-03-19T16:25:02.784Z,49.50
2023-03-19T16:27:36.171Z,49.80
2023-03-19T16:30:26.275Z,57.10
2023-03-19T16:33:03.054Z,47.00
2023-03-19T16:35:35.039Z,47.60
2023-03-19T16:45:27.275Z,55.60
2023-03-19T16:48:01.021Z,49.90
2023-03-19T16:50:35.660Z,51.90
2023-03-19T16:53:05.779Z,52.40
2023-03-19T16:55:36.724Z,50.70
2023-03-19T16:58:17.126Z,52.70
2023-03-19T17:00:46.147Z,52.50
2023-03-19T17:03:17.682Z,52.50
2023-03-19T17:05:46.775Z,53.70
2023-03-19T17:08:17.766Z,57.50
2023-03-19T17:10:49.561Z,55.30
2023-03-19T17:13:20.740Z,52.00
2023-03-19T17:15:50.525Z,48.90
2023-03-19T17:18:24.501Z,51.80
2023-03-19T17:21:00.025Z,52.10
2023-03-19T17:23:30.559Z,58.30
2023-03-19T17:25:59.691Z,55.50
2023-03-19T17:28:32.679Z,57.10
2023-03-19T17:33:32.854Z,53.80
2023-03-19T17:36:01.303Z,49.10
2023-03-19T17:38:34.070Z,56.00
2023-03-19T17:41:05.726Z,57.20
2023-03-19T17:43:34.208Z,54.30
2023-03-19T17:46:02.961Z,47.60
2023-03-19T17:48:31.296Z,56.70
2023-03-19T17:51:02.380Z,56.30
2023-03-19T17:53:30.898Z,55.60
2023-03-19T17:56:00.578Z,57.70
2023-03-19T17:58:32.826Z,56.10
2023-03-19T18:01:03.467Z,53.50
2023-03-19T18:03:36.648Z,49.80
2023-03-19T18:08:38.556Z,51.30
2023-03-19T18:11:06.862Z,53.20
2023-03-19T18:13:38.093Z,52.60
2023-03-19T18:16:12.584Z,53.80
2023-03-19T18:18:41.315Z,56.70
2023-03-19T18:21:14.080Z,49.00
2023-03-19T18:23:43.810Z,55.50
2023-03-19T18:26:12.037Z,62.10
2023-03-19T18:28:40.425Z,54.50
2023-03-19T18:31:26.699Z,53.00
2023-03-19T18:33:59.840Z,51.20
2023-03-19T18:36:31.732Z,49.40
2023-03-19T18:39:00.395Z,56.60
2023-03-19T18:41:29.225Z,53.20
2023-03-19T18:44:07.393Z,48.20
2023-03-19T18:46:36.783Z,50.90
2023-03-19T18:49:19.725Z,50.00
2023-03-19T18:52:01.762Z,51.50
2023-03-19T18:54:31.697Z,52.30
2023-03-19T18:57:03.579Z,50.00
2023-03-19T18:59:33.314Z,51.50
2023-03-19T19:02:21.258Z,52.60
2023-03-19T19:04:49.729Z,62.20
2023-03-19T19:07:18.014Z,58.50
2023-03-19T19:09:46.765Z,50.40
2023-03-19T19:12:18.346Z,52.40
2023-03-19T19:14:47.214Z,57.70
2023-03-19T19:17:21.529Z,51.60
2023-03-19T19:19:51.636Z,47.80
2023-03-19T19:22:20.447Z,47.50
2023-03-19T19:24:49.002Z,48.50
2023-03-19T19:27:21.012Z,49.00
2023-03-19T19:29:51.404Z,40.50
2023-03-19T19:32:26.679Z,38.40
2023-03-19T19:34:55.233Z,38.90
2023-03-19T19:37:29.358Z,44.70
2023-03-19T19:39:58.328Z,61.20
2023-03-19T19:42:26.733Z,47.80
2023-03-19T19:44:56.455Z,46.00
2023-03-19T19:47:25.076Z,36.80
2023-03-19T19:49:58.420Z,41.00
2023-03-19T19:52:31.690Z,41.20
2023-03-19T19:55:00.108Z,35.10
2023-03-19T19:57:28.485Z,45.40
2023-03-19T19:59:57.129Z,39.80
2023-03-19T20:02:29.378Z,39.50
2023-03-19T20:04:58.715Z,47.90
2023-03-19T20:07:27.418Z,40.70
2023-03-19T20:09:56.306Z,39.10
2023-03-19T20:12:28.265Z,38.30
2023-03-19T20:14:57.124Z,39.30
2023-03-19T20:17:25.715Z,48.40
2023-03-19T20:19:55.941Z,37.60
2023-03-19T20:22:24.310Z,39.40
2023-03-19T20:24:53.193Z,39.30
2023-03-19T20:27:23.621Z,41.70
2023-03-19T20:29:53.922Z,39.50
2023-03-19T20:32:36.142Z,44.30
2023-03-19T20:35:14.811Z,42.00
2023-03-19T20:37:43.108Z,42.00
2023-03-19T20:40:13.006Z,42.70
2023-03-19T20:42:41.858Z,42.60
2023-03-19T20:45:15.524Z,40.30
2023-03-19T20:47:44.743Z,40.90
2023-03-19T20:50:17.657Z,42.30
2023-03-19T20:52:49.482Z,40.80
2023-03-19T20:55:19.912Z,40.20
2023-03-19T20:57:49.532Z,41.50
2023-03-19T21:00:23.887Z,42.30
2023-03-19T21:02:53.085Z,45.20
2023-03-19T21:05:36.796Z,41.60
2023-03-19T21:08:16.618Z,46.10
2023-03-19T21:10:45.793Z,49.20
2023-03-19T21:13:17.112Z,46.10
2023-03-19T21:15:47.235Z,43.30
2023-03-19T21:18:17.202Z,46.30
2023-03-19T21:20:48.193Z,50.60
2023-03-19T21:23:37.382Z,42.60
2023-03-19T21:26:16.847Z,45.90
2023-03-19T21:28:46.042Z,45.80
2023-03-19T21:31:18.158Z,45.10
2023-03-19T21:33:49.246Z,41.20
2023-03-19T21:36:18.065Z,42.60
2023-03-19T21:38:46.735Z,46.70
2023-03-19T21:41:37.423Z,47.70
2023-03-19T21:44:07.682Z,43.10
2023-03-19T21:49:07.738Z,44.90
2023-03-19T21:51:38.217Z,42.90
2023-03-19T21:54:06.695Z,47.20
2023-03-19T21:56:40.396Z,47.10
2023-03-19T21:59:38.873Z,48.70
2023-03-19T22:02:23.833Z,42.20
2023-03-19T22:04:52.426Z,50.50
2023-03-19T22:07:20.909Z,53.30
2023-03-19T22:09:50.095Z,49.00
2023-03-19T22:12:27.808Z,50.60
2023-03-19T22:14:56.500Z,47.60
2023-03-19T22:19:55.182Z,53.90
2023-03-19T22:22:23.884Z,47.90
2023-03-19T22:24:56.035Z,46.80
2023-03-19T22:29:52.601Z,45.80
2023-03-19T22:32:21.172Z,52.30
2023-03-19T22:34:49.624Z,42.90
2023-03-19T22:37:29.603Z,46.90
2023-03-19T22:39:57.879Z,46.50
2023-03-19T22:49:55.697Z,48.10
2023-03-19T22:52:24.049Z,46.70
2023-03-19T22:54:54.095Z,44.40
2023-03-19T22:57:22.756Z,46.20
2023-03-19T22:59:53.042Z,45.60
2023-03-19T23:02:24.507Z,45.90
2023-03-19T23:04:53.230Z,49.60
2023-03-19T23:07:24.829Z,47.10
2023-03-19T23:09:57.074Z,46.60
2023-03-19T23:12:33.892Z,48.70
2023-03-19T23:15:02.590Z,48.40
2023-03-19T23:17:31.536Z,49.30
2023-03-19T23:20:00.189Z,47.10
2023-03-19T23:22:28.931Z,49.30
2023-03-19T23:24:58.293Z,49.90
2023-03-19T23:27:26.991Z,53.40
2023-03-19T23:29:56.562Z,47.30
2023-03-19T23:32:29.064Z,48.70
2023-03-19T23:35:01.429Z,50.60
2023-03-19T23:37:30.249Z,47.70
2023-03-19T23:40:01.984Z,50.40
2023-03-19T23:42:31.815Z,49.30
2023-03-19T23:45:05.138Z,48.00
2023-03-19T23:47:33.961Z,48.50
2023-03-19T23:50:02.433Z,49.60
2023-03-19T23:52:34.027Z,49.40
2023-03-19T23:55:03.186Z,49.90
2023-03-19T23:57:31.560Z,48.20
